Time;durP1;ratioP1;P1;durP2;ratioP2;P2;SDS_P1;SDS_P2;PMS_P1;PMS_P2;Temp;Humidity;BMP_temperature;BMP_pressure;BME280_temperature;BME280_humidity;BME280_pressure;Samples;Min_cycle;Max_cycle;Signal;HPM_P1;HPM_P2
2021/05/19 00:00:35;;;;;;;19.42;11.73;;;;;;;15.19;98.35;98105.97;1674311;85;21639;-72
2021/05/19 00:03:01;;;;;;;15.68;12.13;;;;;;;15.19;98.16;98111.39;1674210;85;20953;-75
2021/05/19 00:05:28;;;;;;;18.15;10.50;;;;;;;15.19;97.95;98117.36;1653338;85;21788;-78
2021/05/19 00:07:54;;;;;;;12.80;11.48;;;;;;;15.15;97.73;98117.20;1683847;85;20973;-74
2021/05/19 00:10:22;;;;;;;12.30;11.08;;;;;;;15.13;97.46;98122.69;1678779;85;21029;-78
2021/05/19 00:12:48;;;;;;;14.58;10.98;;;;;;;15.10;97.27;98120.06;1682527;85;21122;-74
2021/05/19 00:15:15;;;;;;;17.80;11.20;;;;;;;15.06;97.24;98129.91;1671454;85;21044;-82
2021/05/19 00:17:46;;;;;;;19.10;11.65;;;;;;;15.04;97.28;98124.59;1671558;85;21201;-80
2021/05/19 00:20:15;;;;;;;17.27;13.90;;;;;;;15.08;97.64;98122.84;1669265;85;21665;-81
2021/05/19 00:22:43;;;;;;;14.03;12.00;;;;;;;15.08;97.48;98122.84;1661660;85;21029;-80
2021/05/19 00:25:11;;;;;;;14.33;11.97;;;;;;;15.13;97.74;98114.56;1679943;85;21158;-79
2021/05/19 00:27:38;;;;;;;11.78;10.43;;;;;;;15.17;97.76;98120.93;1669449;85;21085;-79
2021/05/19 00:30:06;;;;;;;19.00;11.33;;;;;;;15.14;97.16;98117.52;1677635;85;21101;-77
2021/05/19 00:32:33;;;;;;;13.40;10.63;;;;;;;14.98;96.96;98119.08;1678856;85;21048;-79
2021/05/19 00:34:59;;;;;;;22.95;11.33;;;;;;;14.89;97.48;98111.51;1654779;85;21060;-76
2021/05/19 00:37:26;;;;;;;13.10;10.05;;;;;;;14.77;97.83;98110.78;1667547;85;21620;-74
2021/05/19 00:39:52;;;;;;;20.97;11.78;;;;;;;14.71;98.35;98110.69;1657814;86;21084;-76
2021/05/19 00:42:19;;;;;;;15.85;11.25;;;;;;;14.63;98.73;98105.48;1655322;85;21107;-78
2021/05/19 00:44:46;;;;;;;16.25;11.60;;;;;;;14.61;99.12;98102.86;1632164;87;20991;-72
2021/05/19 00:47:34;;;;;;;12.68;10.80;;;;;;;14.67;99.63;98109.73;1616894;88;21606;-75
2021/05/19 00:50:01;;;;;;;16.07;12.73;;;;;;;14.72;99.50;98109.58;1616781;88;21729;-71
2021/05/19 00:52:27;;;;;;;20.27;11.78;;;;;;;14.76;99.83;98107.28;1616873;88;21080;-73
2021/05/19 00:54:55;;;;;;;19.20;11.78;;;;;;;14.87;100.00;98107.75;1594817;88;21126;-74
2021/05/19 00:57:22;;;;;;;11.15;10.05;;;;;;;14.92;99.62;98103.55;1615873;88;21087;-76
2021/05/19 00:59:49;;;;;;;16.00;11.97;;;;;;;14.93;99.39;98101.63;1594669;88;21606;-75
2021/05/19 01:02:17;;;;;;;19.00;10.95;;;;;;;14.91;99.32;98099.82;1594900;88;21067;-74
2021/05/19 01:04:44;;;;;;;14.47;12.75;;;;;;;14.93;99.32;98105.70;1616465;88;21037;-74
2021/05/19 01:07:26;;;;;;;15.78;10.95;;;;;;;14.98;99.12;98099.58;1597030;88;21105;-72
2021/05/19 01:09:54;;;;;;;13.10;10.80;;;;;;;14.97;98.56;98096.63;1595448;88;21014;-73
2021/05/19 01:12:22;;;;;;;16.82;12.30;;;;;;;14.95;98.89;98099.42;1623482;87;21037;-69
2021/05/19 01:14:51;;;;;;;13.08;11.75;;;;;;;14.99;98.99;98093.05;1615625;88;20985;-73
2021/05/19 01:17:19;;;;;;;12.98;11.55;;;;;;;14.99;98.66;98100.38;1594576;88;21416;-71
2021/05/19 01:19:48;;;;;;;12.47;10.08;;;;;;;14.97;98.46;98097.98;1616576;88;21755;-76
2021/05/19 01:22:22;;;;;;;14.90;12.90;;;;;;;15.00;98.50;98103.33;1607134;88;21078;-70
2021/05/19 01:24:50;;;;;;;17.75;12.70;;;;;;;15.00;98.31;98104.69;1572914;88;21020;-74
2021/05/19 01:27:17;;;;;;;14.50;13.03;;;;;;;15.03;98.33;98103.48;1607352;88;21033;-72
2021/05/19 01:29:50;;;;;;;15.18;11.28;;;;;;;15.00;97.82;98104.13;1616678;88;21598;-73
2021/05/19 01:32:17;;;;;;;20.10;12.47;;;;;;;14.99;98.02;98106.59;1594777;88;21625;-70
2021/05/19 01:34:44;;;;;;;13.45;12.10;;;;;;;15.00;97.93;98112.25;1617379;88;21005;-71
2021/05/19 01:37:13;;;;;;;14.28;12.75;;;;;;;15.04;98.17;98104.28;1616674;88;21583;-72
2021/05/19 01:39:40;;;;;;;13.08;11.80;;;;;;;15.12;98.20;98104.84;1617540;88;21627;-73
2021/05/19 01:42:09;;;;;;;11.68;10.68;;;;;;;15.12;97.43;98107.55;1615766;88;21095;-72
2021/05/19 01:44:36;;;;;;;11.97;10.78;;;;;;;15.01;96.84;98104.93;1606740;88;21561;-71
2021/05/19 01:47:06;;;;;;;13.95;12.65;;;;;;;14.94;97.11;98108.65;1604413;89;21135;-71
2021/05/19 01:49:40;;;;;;;10.82;9.43;;;;;;;14.86;97.25;98102.67;1616546;88;21076;-71
2021/05/19 01:52:08;;;;;;;11.33;10.32;;;;;;;14.78;97.55;98107.75;1615963;87;21091;-76
2021/05/19 01:54:36;;;;;;;13.68;10.93;;;;;;;14.72;98.00;98109.00;1643334;84;20997;-72
2021/05/19 01:57:05;;;;;;;14.28;12.88;;;;;;;14.68;98.44;98105.33;1647116;87;22281;-71
2021/05/19 01:59:32;;;;;;;19.90;13.83;;;;;;;14.67;98.73;98110.53;1625493;86;21577;-74
2021/05/19 02:01:59;;;;;;;14.23;12.90;;;;;;;14.71;99.02;98118.80;1597033;88;21059;-78
2021/05/19 02:04:27;;;;;;;14.47;13.10;;;;;;;14.76;99.20;98120.81;1648383;87;21129;-72
2021/05/19 02:06:58;;;;;;;15.78;14.20;;;;;;;14.84;99.35;98120.58;1647528;87;20981;-74
2021/05/19 02:09:32;;;;;;;12.47;11.33;;;;;;;14.88;99.02;98118.83;1650775;85;21100;-72
2021/05/19 02:12:01;;;;;;;13.55;12.20;;;;;;;14.84;98.63;98115.96;1647097;86;20982;-76
2021/05/19 02:14:28;;;;;;;14.73;13.18;;;;;;;14.73;98.42;98116.56;1646800;87;21052;-74
2021/05/19 02:16:57;;;;;;;14.38;12.90;;;;;;;14.66;98.99;98116.25;1648006;86;21580;-72
2021/05/19 02:19:23;;;;;;;15.13;13.35;;;;;;;14.63;99.18;98120.91;1647290;85;21345;-72
2021/05/19 02:21:51;;;;;;;20.05;15.68;;;;;;;14.65;99.41;98118.70;1657177;85;21766;-72
2021/05/19 02:24:18;;;;;;;15.75;12.80;;;;;;;14.59;99.25;98124.81;1647670;85;21677;-71
2021/05/19 02:26:47;;;;;;;15.32;12.23;;;;;;;14.63;99.79;98125.77;1647510;87;21181;-72
2021/05/19 02:29:15;;;;;;;14.13;12.05;;;;;;;14.65;99.79;98124.91;1647737;85;21112;-73
2021/05/19 02:31:42;;;;;;;16.37;14.68;;;;;;;14.71;100.00;98132.34;1648002;86;21640;-72
2021/05/19 02:34:10;;;;;;;14.68;13.18;;;;;;;14.74;100.00;98141.17;1648440;86;21738;-77
2021/05/19 02:36:37;;;;;;;16.42;14.83;;;;;;;14.75;99.77;98138.16;1648092;87;21029;-73
2021/05/19 02:39:08;;;;;;;18.55;14.87;;;;;;;14.71;99.85;98145.31;1647030;87;21018;-74
2021/05/19 02:41:39;;;;;;;15.10;13.48;;;;;;;14.76;100.00;98135.70;1646066;86;21577;-73
2021/05/19 02:44:06;;;;;;;15.48;13.72;;;;;;;14.79;100.00;98142.38;1647319;87;21029;-72
2021/05/19 02:46:33;;;;;;;14.65;13.15;;;;;;;14.80;100.00;98140.72;1646483;85;21176;-72
2021/05/19 02:49:02;;;;;;;14.68;13.18;;;;;;;14.82;100.00;98141.18;1624777;87;21049;-72
2021/05/19 02:51:31;;;;;;;14.83;13.40;;;;;;;14.81;100.00;98136.11;1626251;87;21021;-71
2021/05/19 02:53:58;;;;;;;13.55;12.25;;;;;;;14.84;100.00;98143.58;1647937;85;21124;-69
2021/05/19 02:56:27;;;;;;;14.05;12.55;;;;;;;14.88;100.00;98149.16;1647864;85;21588;-70
2021/05/19 02:58:53;;;;;;;14.98;13.45;;;;;;;14.86;100.00;98158.96;1647039;87;21050;-69
2021/05/19 03:01:20;;;;;;;14.20;12.70;;;;;;;14.84;100.00;98159.27;1647770;87;20982;-70
2021/05/19 03:03:47;;;;;;;12.63;11.30;;;;;;;14.86;100.00;98156.26;1647846;85;21074;-72
2021/05/19 03:06:13;;;;;;;14.45;13.05;;;;;;;14.84;100.00;98155.21;1646981;86;21104;-73
2021/05/19 03:08:39;;;;;;;14.35;12.85;;;;;;;14.84;100.00;98152.50;1646472;85;21084;-70
2021/05/19 03:11:06;;;;;;;14.95;13.40;;;;;;;14.89;100.00;98152.11;1647541;87;22259;-70
2021/05/19 03:13:33;;;;;;;13.88;12.40;;;;;;;14.89;100.00;98151.55;1647830;86;21041;-69
2021/05/19 03:16:00;;;;;;;13.93;12.25;;;;;;;14.87;100.00;98156.48;1648209;85;21001;-71
2021/05/19 03:18:27;;;;;;;14.55;13.15;;;;;;;14.84;100.00;98151.70;1647665;87;20942;-68
2021/05/19 03:20:53;;;;;;;15.03;13.53;;;;;;;14.82;100.00;98149.85;1647657;85;21580;-70
2021/05/19 03:23:19;;;;;;;15.28;13.83;;;;;;;14.89;100.00;98152.91;1647719;87;21009;-71
2021/05/19 03:25:46;;;;;;;14.35;12.98;;;;;;;14.91;100.00;98147.98;1647809;87;21192;-75
2021/05/19 03:28:13;;;;;;;17.70;14.45;;;;;;;14.89;100.00;98150.75;1647780;87;20965;-73
2021/05/19 03:30:39;;;;;;;15.68;13.10;;;;;;;14.90;100.00;98157.22;1648043;85;21012;-71
2021/05/19 03:33:06;;;;;;;13.93;11.93;;;;;;;14.92;100.00;98158.23;1644727;87;21095;-72
2021/05/19 03:35:34;;;;;;;14.73;12.65;;;;;;;15.00;100.00;98160.19;1588603;89;21310;-72
2021/05/19 03:38:00;;;;;;;12.23;10.63;;;;;;;15.02;100.00;98164.16;1647644;87;21776;-72
2021/05/19 03:40:27;;;;;;;12.78;11.48;;;;;;;15.01;100.00;98168.55;1647561;86;21020;-71
2021/05/19 03:42:53;;;;;;;14.13;11.85;;;;;;;14.99;100.00;98170.77;1625291;87;21072;-73
2021/05/19 03:45:21;;;;;;;15.90;12.85;;;;;;;14.99;100.00;98170.21;1648098;85;21039;-74
2021/05/19 03:47:51;;;;;;;13.50;12.10;;;;;;;15.05;100.00;98173.58;1646955;87;21009;-71
2021/05/19 03:50:18;;;;;;;15.20;12.07;;;;;;;15.11;100.00;98169.58;1648076;86;21001;-72
2021/05/19 03:52:45;;;;;;;15.23;13.75;;;;;;;15.13;100.00;98168.16;1624699;87;21137;-73
2021/05/19 03:55:13;;;;;;;12.03;10.30;;;;;;;15.16;100.00;98166.17;1642965;85;21624;-72
2021/05/19 03:57:40;;;;;;;15.38;11.03;;;;;;;15.14;100.00;98165.70;1665405;85;20961;-71
2021/05/19 04:00:11;;;;;;;18.45;12.82;;;;;;;15.14;100.00;98160.84;1624342;87;21017;-71
2021/05/19 04:02:48;;;;;;;15.20;13.35;;;;;;;15.15;100.00;98160.53;1647103;87;21115;-70
2021/05/19 04:05:12;;;;;;;21.48;17.35;;;;;;;15.17;100.00;98160.20;1647803;87;21033;-73
2021/05/19 04:07:38;;;;;;;14.55;13.05;;;;;;;15.19;100.00;98160.69;1643294;85;21000;-70
2021/05/19 04:10:07;;;;;;;14.33;11.03;;;;;;;15.19;100.00;98159.34;1589072;90;21109;-73
2021/05/19 04:12:33;;;;;;;14.07;12.30;;;;;;;15.20;99.89;98154.94;1607719;89;21076;-71
2021/05/19 04:14:59;;;;;;;17.12;14.70;;;;;;;15.21;99.68;98154.38;1608740;88;21037;-71
2021/05/19 04:17:26;;;;;;;13.25;11.73;;;;;;;15.26;99.70;98154.23;1585436;89;21097;-73
2021/05/19 04:19:52;;;;;;;13.50;12.20;;;;;;;15.31;99.73;98155.98;1608003;88;21102;-73
2021/05/19 04:22:18;;;;;;;13.85;12.55;;;;;;;15.35;99.55;98150.97;1608051;88;21010;-71
2021/05/19 04:24:45;;;;;;;12.63;11.35;;;;;;;15.37;99.18;98155.52;1605604;89;21093;-72
2021/05/19 04:27:11;;;;;;;14.03;11.83;;;;;;;15.36;99.01;98150.41;1586221;89;21072;-70
2021/05/19 04:29:38;;;;;;;15.75;11.85;;;;;;;15.34;98.99;98156.16;1609517;89;21001;-72
2021/05/19 04:32:06;;;;;;;12.80;11.57;;;;;;;15.40;99.25;98156.78;1606015;89;21649;-72
2021/05/19 04:34:36;;;;;;;16.52;13.00;;;;;;;15.43;99.09;98158.88;1616340;88;21059;-70
2021/05/19 04:37:01;;;;;;;14.40;13.05;;;;;;;15.45;99.04;98159.33;1615756;88;21693;-71
2021/05/19 04:39:27;;;;;;;13.20;12.00;;;;;;;15.50;99.16;98150.48;1615663;88;21130;-72
2021/05/19 04:41:54;;;;;;;12.75;11.55;;;;;;;15.55;99.07;98147.65;1615783;88;21333;-72
2021/05/19 04:44:21;;;;;;;11.05;9.90;;;;;;;15.59;98.92;98149.16;1599440;88;21064;-72
2021/05/19 04:46:47;;;;;;;13.95;12.65;;;;;;;15.62;98.76;98148.53;1616002;87;21051;-75
2021/05/19 04:49:14;;;;;;;13.32;12.10;;;;;;;15.63;98.42;98155.55;1615757;88;21161;-70
2021/05/19 04:51:41;;;;;;;12.15;10.90;;;;;;;15.63;98.27;98149.55;1599553;88;21698;-71
2021/05/19 04:54:08;;;;;;;11.33;10.10;;;;;;;15.71;98.41;98150.67;1600699;88;21055;-72
2021/05/19 04:56:36;;;;;;;11.35;10.18;;;;;;;15.78;97.85;98150.20;1648436;87;21584;-75
2021/05/19 04:59:04;;;;;;;12.33;11.08;;;;;;;15.79;97.10;98147.70;1626169;87;21065;-71
2021/05/19 05:01:31;;;;;;;16.37;13.80;;;;;;;15.77;96.56;98150.75;1626085;87;21028;-71
2021/05/19 05:03:57;;;;;;;14.35;12.95;;;;;;;15.76;96.42;98153.22;1625256;87;21084;-72
2021/05/19 05:06:23;;;;;;;13.93;12.60;;;;;;;15.77;96.46;98150.75;1647313;87;20977;-71
2021/05/19 05:08:51;;;;;;;12.53;11.33;;;;;;;15.82;96.61;98152.50;1647238;87;21132;-70
2021/05/19 05:11:17;;;;;;;14.35;13.00;;;;;;;15.86;96.25;98152.89;1647145;87;21073;-71
2021/05/19 05:13:44;;;;;;;14.78;13.38;;;;;;;15.88;96.17;98149.84;1644598;87;21104;-73
2021/05/19 05:16:10;;;;;;;15.08;13.35;;;;;;;15.88;95.97;98153.91;1626102;87;21584;-73
2021/05/19 05:18:38;;;;;;;14.28;11.33;;;;;;;15.85;95.90;98158.06;1648642;87;20996;-72
2021/05/19 05:21:05;;;;;;;14.15;12.65;;;;;;;15.90;95.92;98157.11;1671097;85;21097;-72
2021/05/19 05:23:32;;;;;;;11.63;10.48;;;;;;;15.87;95.57;98159.91;1648759;85;21637;-70
2021/05/19 05:25:59;;;;;;;14.00;10.58;;;;;;;15.94;96.19;98158.84;1668573;85;21372;-74
2021/05/19 05:28:27;;;;;;;11.80;10.65;;;;;;;15.99;95.97;98155.17;1621964;88;21024;-72
2021/05/19 05:30:55;;;;;;;13.45;12.10;;;;;;;16.05;96.13;98164.73;1622196;88;21074;-71
2021/05/19 05:33:22;;;;;;;11.55;10.40;;;;;;;16.15;95.86;98165.75;1623150;87;21154;-70
2021/05/19 05:35:49;;;;;;;10.50;9.50;;;;;;;16.22;95.32;98166.03;1647439;87;21162;-71
2021/05/19 05:38:16;;;;;;;12.58;11.38;;;;;;;16.25;94.31;98168.67;1624763;87;21159;-70
2021/05/19 05:40:42;;;;;;;11.70;10.55;;;;;;;16.19;93.50;98168.60;1648478;85;21052;-71
2021/05/19 05:43:09;;;;;;;12.18;10.90;;;;;;;16.15;93.74;98175.24;1667206;85;21092;-71
2021/05/19 05:45:36;;;;;;;12.68;11.28;;;;;;;16.16;94.12;98167.34;1581178;89;21387;-72
2021/05/19 05:48:03;;;;;;;12.85;11.12;;;;;;;16.26;94.51;98170.27;1570202;89;20998;-71
2021/05/19 05:50:30;;;;;;;12.40;11.12;;;;;;;16.36;93.84;98171.25;1595238;89;21686;-73
2021/05/19 05:52:56;;;;;;;14.68;13.13;;;;;;;16.42;93.53;98174.83;1575333;90;21011;-72
2021/05/19 05:55:22;;;;;;;13.00;11.73;;;;;;;16.44;93.16;98178.59;1594984;89;21135;-72
2021/05/19 05:57:49;;;;;;;15.00;13.60;;;;;;;16.42;92.39;98172.12;1596264;89;21050;-70
2021/05/19 06:00:18;;;;;;;14.23;12.98;;;;;;;16.40;92.56;98169.51;1596530;89;21601;-72
2021/05/19 06:02:44;;;;;;;14.33;12.85;;;;;;;16.43;92.47;98166.94;1563392;90;21170;-71
2021/05/19 06:05:12;;;;;;;13.95;11.35;;;;;;;16.45;92.36;98169.33;1584374;89;21602;-72
2021/05/19 06:07:39;;;;;;;13.35;12.07;;;;;;;16.47;92.32;98172.50;1583590;89;21136;-69
2021/05/19 06:10:07;;;;;;;11.80;10.65;;;;;;;16.47;91.63;98175.21;1583565;89;21623;-70
2021/05/19 06:12:36;;;;;;;11.48;10.40;;;;;;;16.49;91.26;98179.77;1609607;89;21088;-72
2021/05/19 06:15:06;;;;;;;14.45;12.53;;;;;;;16.47;90.75;98183.35;1610207;88;20999;-72
2021/05/19 06:17:33;;;;;;;21.05;18.70;;;;;;;16.50;91.08;98178.63;1597283;89;21043;-72
2021/05/19 06:19:59;;;;;;;13.72;12.23;;;;;;;16.61;91.14;98184.52;1610422;89;21157;-71
2021/05/19 06:22:26;;;;;;;11.78;10.60;;;;;;;16.76;91.01;98189.41;1610205;88;21094;-72
2021/05/19 06:24:52;;;;;;;11.95;10.38;;;;;;;16.89;89.45;98191.09;1610290;88;21110;-73
2021/05/19 06:27:20;;;;;;;12.10;10.90;;;;;;;16.97;88.29;98207.37;1596828;89;21612;-73
2021/05/19 06:29:46;;;;;;;13.70;9.53;;;;;;;17.08;87.47;98202.89;1608920;88;21075;-71
2021/05/19 06:32:13;;;;;;;13.45;11.22;;;;;;;17.18;86.85;98199.23;1609075;88;21596;-73
2021/05/19 06:34:40;;;;;;;9.05;8.15;;;;;;;17.32;85.76;98207.94;1609062;89;21077;-70
2021/05/19 06:37:06;;;;;;;9.73;8.83;;;;;;;17.46;83.87;98213.70;1608914;89;21648;-76
2021/05/19 06:39:33;;;;;;;11.78;10.58;;;;;;;17.49;83.18;98212.47;1609160;88;22324;-71
2021/05/19 06:42:00;;;;;;;11.05;10.00;;;;;;;17.54;82.52;98220.99;1595993;89;21040;-71
2021/05/19 06:44:27;;;;;;;10.32;9.43;;;;;;;17.60;81.50;98216.98;1612992;87;21135;-71
2021/05/19 06:46:53;;;;;;;10.30;9.30;;;;;;;17.65;80.73;98227.66;1604993;88;21079;-71
2021/05/19 06:49:19;;;;;;;12.18;10.38;;;;;;;17.73;80.01;98234.39;1638191;86;21052;-72
2021/05/19 06:51:46;;;;;;;12.28;10.58;;;;;;;17.78;79.38;98235.55;1652618;86;21918;-72
2021/05/19 06:54:13;;;;;;;12.35;9.00;;;;;;;17.72;78.12;98236.08;1651271;85;21210;-70
2021/05/19 06:56:44;;;;;;;10.55;8.93;;;;;;;17.65;77.87;98231.16;1633397;86;20946;-71
2021/05/19 06:59:17;;;;;;;8.58;7.53;;;;;;;17.68;78.06;98244.66;1635134;86;21561;-73
2021/05/19 07:01:46;;;;;;;12.73;8.55;;;;;;;17.67;77.57;98247.95;1652619;86;20965;-70
2021/05/19 07:04:12;;;;;;;10.13;9.23;;;;;;;17.62;78.06;98236.47;1634901;86;21032;-70
2021/05/19 07:06:39;;;;;;;8.60;7.80;;;;;;;17.57;78.30;98237.43;1635031;86;21075;-72
2021/05/19 07:09:06;;;;;;;9.90;8.63;;;;;;;17.52;78.88;98234.11;1652584;86;21270;-73
2021/05/19 07:11:33;;;;;;;8.73;7.87;;;;;;;17.46;78.87;98238.94;1634976;86;21064;-70
2021/05/19 07:14:01;;;;;;;11.33;9.25;;;;;;;17.44;79.22;98239.28;1633338;86;21701;-71
2021/05/19 07:16:28;;;;;;;10.30;9.30;;;;;;;17.42;79.49;98241.52;1638431;86;21094;-70
2021/05/19 07:18:56;;;;;;;12.45;9.20;;;;;;;17.49;80.00;98243.73;1648877;86;20965;-70
2021/05/19 07:21:23;;;;;;;10.15;7.30;;;;;;;17.59;79.58;98242.58;1651933;86;21020;-72
2021/05/19 07:23:51;;;;;;;9.53;8.50;;;;;;;17.67;79.23;98243.87;1635011;86;21066;-71
2021/05/19 07:26:20;;;;;;;8.88;8.08;;;;;;;17.73;78.38;98243.91;1652519;86;21052;-70
2021/05/19 07:28:46;;;;;;;8.45;6.60;;;;;;;17.75;75.17;98249.80;1652335;86;21669;-71
2021/05/19 07:31:13;;;;;;;9.00;6.97;;;;;;;17.79;75.05;98247.23;1635122;86;21008;-73
2021/05/19 07:33:39;;;;;;;6.42;5.50;;;;;;;17.81;74.67;98243.59;1644769;86;21635;-71
2021/05/19 07:36:06;;;;;;;5.72;5.30;;;;;;;17.83;73.23;98250.87;1645100;86;21101;-70
2021/05/19 07:38:33;;;;;;;6.87;4.80;;;;;;;17.82;72.33;98247.91;1651135;86;22245;-71
2021/05/19 07:40:59;;;;;;;5.20;4.75;;;;;;;17.88;72.47;98251.23;1633779;86;21110;-70
2021/05/19 07:43:27;;;;;;;7.87;4.30;;;;;;;17.97;71.57;98251.95;1652648;86;21049;-70
2021/05/19 07:45:53;;;;;;;3.55;3.25;;;;;;;18.03;71.17;98256.87;1654826;86;21009;-71
2021/05/19 07:48:20;;;;;;;7.05;4.12;;;;;;;18.13;70.50;98257.02;1656471;86;21580;-70
2021/05/19 07:50:46;;;;;;;4.62;3.10;;;;;;;18.20;69.62;98252.62;1612970;87;21103;-71
2021/05/19 07:53:13;;;;;;;3.98;3.47;;;;;;;18.29;68.27;98260.70;1647635;87;21691;-71
2021/05/19 07:55:47;;;;;;;4.22;3.58;;;;;;;18.34;68.47;98263.77;1635222;87;20995;-69
2021/05/19 07:58:15;;;;;;;4.78;3.22;;;;;;;18.37;69.33;98260.39;1620146;87;21051;-73
2021/05/19 08:03:11;;;;;;;3.98;3.58;;;;;;;18.53;69.01;98264.05;1601994;87;21080;-71
2021/05/19 08:05:38;;;;;;;4.03;2.52;;;;;;;18.68;67.50;98267.53;1649064;87;21178;-71
2021/05/19 08:08:04;;;;;;;1.60;1.50;;;;;;;18.81;65.24;98258.80;1627096;87;21116;-71
2021/05/19 08:10:31;;;;;;;3.95;3.47;;;;;;;18.83;64.33;98259.27;1647480;87;21105;-70
2021/05/19 08:12:57;;;;;;;1.92;1.82;;;;;;;18.77;64.57;98262.77;1647554;86;21117;-70
2021/05/19 08:15:24;;;;;;;5.58;2.52;;;;;;;18.74;64.28;98268.91;1626040;87;21104;-73
2021/05/19 08:17:51;;;;;;;1.98;1.87;;;;;;;18.73;64.63;98279.00;1647752;86;21092;-69
2021/05/19 08:20:21;;;;;;;3.92;2.58;;;;;;;18.76;65.13;98271.27;1648944;86;21045;-69
2021/05/19 08:22:48;;;;;;;2.37;1.70;;;;;;;18.80;64.71;98266.17;1648924;86;20992;-71
2021/05/19 08:25:15;;;;;;;40.17;3.58;;;;;;;18.88;64.11;98271.31;1648723;86;21435;-70
2021/05/19 08:27:41;;;;;;;2.58;1.87;;;;;;;18.91;63.25;98272.78;1649008;86;21101;-71
2021/05/19 08:30:14;;;;;;;1.90;1.80;;;;;;;18.86;63.73;98279.81;1649042;86;22572;-71
2021/05/19 08:32:40;;;;;;;1.90;1.80;;;;;;;18.75;64.01;98276.52;1649028;86;21109;-71
2021/05/19 08:35:08;;;;;;;3.72;1.50;;;;;;;18.68;64.53;98287.95;1642704;86;21584;-69
2021/05/19 08:37:36;;;;;;;1.62;1.50;;;;;;;18.65;65.23;98285.35;1599626;89;20982;-71
2021/05/19 08:40:08;;;;;;;4.53;2.02;;;;;;;18.66;65.35;98292.37;1635364;86;21049;-72
2021/05/19 08:42:36;;;;;;;3.37;1.50;;;;;;;18.66;65.28;98288.84;1628180;87;21087;-70
2021/05/19 08:45:05;;;;;;;2.35;1.55;;;;;;;18.63;63.95;98301.22;1647789;86;20966;-68
2021/05/19 08:47:31;;;;;;;3.95;1.72;;;;;;;18.60;63.93;98292.94;1624950;87;20941;-70
2021/05/19 08:49:58;;;;;;;1.17;1.05;;;;;;;18.61;63.42;98306.75;1648342;87;21073;-69
2021/05/19 08:52:24;;;;;;;3.83;1.40;;;;;;;18.61;62.53;98303.47;1648541;87;21572;-69
2021/05/19 08:54:54;;;;;;;2.52;1.65;;;;;;;18.64;61.95;98303.38;1625722;87;21069;-71
2021/05/19 08:57:19;;;;;;;1.47;1.37;;;;;;;18.67;61.86;98301.34;1647229;87;21009;-70
2021/05/19 08:59:47;;;;;;;2.30;1.15;;;;;;;18.65;61.30;98311.78;1648553;87;21498;-70
2021/05/19 09:02:17;;;;;;;1.42;1.15;;;;;;;18.57;61.06;98317.53;1647555;87;21029;-71
2021/05/19 09:04:44;;;;;;;1.20;1.20;;;;;;;18.50;61.65;98316.47;1648622;87;21045;-70
2021/05/19 09:07:19;;;;;;;1.30;1.20;;;;;;;18.46;62.57;98317.71;1640185;87;21832;-68
2021/05/19 09:09:45;;;;;;;1.57;1.47;;;;;;;18.43;62.49;98321.08;1636724;86;21108;-71
2021/05/19 09:12:14;;;;;;;1.50;1.40;;;;;;;18.39;63.16;98318.80;1647228;87;21054;-70
2021/05/19 09:14:46;;;;;;;5.67;1.72;;;;;;;18.45;63.82;98312.59;1647063;87;21028;-70
2021/05/19 09:17:24;;;;;;;2.67;1.50;;;;;;;18.48;63.40;98305.91;1638229;87;21584;-69
2021/05/19 09:20:15;;;;;;;1.90;1.50;;;;;;;18.48;64.07;98305.10;1647087;86;21832;-69
2021/05/19 09:22:45;;;;;;;1.98;1.07;;;;;;;18.55;64.88;98314.93;1648666;87;21055;-70
2021/05/19 09:25:22;;;;;;;3.75;1.62;;;;;;;18.65;64.07;98311.23;1648558;86;20965;-70
2021/05/19 09:27:50;;;;;;;2.37;1.40;;;;;;;18.65;63.35;98309.86;1616603;87;21155;-70
2021/05/19 09:30:37;;;;;;;6.60;2.30;;;;;;;18.77;63.16;98309.64;1648656;86;21037;-69
2021/05/19 09:33:18;;;;;;;1.52;1.40;;;;;;;18.88;62.52;98311.61;1603337;87;21529;-70
2021/05/19 09:35:46;;;;;;;2.30;1.70;;;;;;;19.04;62.49;98300.86;1651769;85;21058;-69
2021/05/19 09:38:30;;;;;;;3.87;1.40;;;;;;;19.16;61.14;98307.10;1647544;87;21033;-68
2021/05/19 09:41:30;;;;;;;4.15;1.62;;;;;;;19.15;59.89;98296.53;1648842;87;21207;-69
2021/05/19 09:43:58;;;;;;;1.87;1.77;;;;;;;19.07;60.63;98298.80;1625959;87;21026;-70
2021/05/19 09:49:21;;;;;;;1.98;1.37;;;;;;;19.12;60.69;98304.03;1635494;87;21124;-70
2021/05/19 09:51:51;;;;;;;1.42;1.32;;;;;;;19.13;60.73;98296.89;1648986;86;21068;-68
2021/05/19 09:54:32;;;;;;;3.55;2.50;;;;;;;19.17;61.93;98294.27;1612949;87;21023;-69
2021/05/19 09:57:02;;;;;;;3.95;1.92;;;;;;;19.31;61.68;98288.48;1647301;87;21060;-70
2021/05/19 09:59:29;;;;;;;1.12;1.00;;;;;;;19.48;61.11;98301.89;1634985;87;21090;-71
2021/05/19 10:01:58;;;;;;;1.60;1.50;;;;;;;19.62;60.35;98305.62;1623882;87;21000;-72
2021/05/19 10:04:37;;;;;;;2.00;1.42;;;;;;;19.72;59.92;98296.98;1638022;87;20981;-69
2021/05/19 10:06:57;;;;;;;4.60;1.80;;;;;;;19.83;59.83;98299.47;1645240;87;21096;-69
2021/05/19 10:09:27;;;;;;;2.30;2.20;;;;;;;19.89;59.67;98302.19;1648541;87;21092;-71
2021/05/19 10:11:56;;;;;;;1.50;1.40;;;;;;;19.98;58.93;98298.75;1648879;86;21121;-68
2021/05/19 10:14:23;;;;;;;1.60;1.40;;;;;;;20.06;58.57;98307.36;1648487;85;21177;-71
2021/05/19 10:16:57;;;;;;;3.25;1.60;;;;;;;20.18;57.93;98303.81;1628157;87;21081;-70
2021/05/19 10:19:28;;;;;;;7.28;1.20;;;;;;;20.24;57.63;98292.28;1648900;86;21830;-70
2021/05/19 10:21:56;;;;;;;3.05;1.30;;;;;;;20.43;58.55;98305.34;1638701;86;21249;-71
2021/05/19 10:24:53;;;;;;;2.37;1.27;;;;;;;20.43;58.55;98305.34;1627726;87;21068;-70
2021/05/19 10:27:19;;;;;;;5.30;1.17;;;;;;;20.59;57.90;98306.16;1626953;87;21009;-70
2021/05/19 10:29:51;;;;;;;3.72;1.07;;;;;;;20.71;57.09;98297.92;1628166;87;21059;-71
2021/05/19 10:32:30;;;;;;;3.40;2.12;;;;;;;20.81;57.87;98312.41;1627853;87;20997;-71
2021/05/19 10:35:03;;;;;;;3.35;2.22;;;;;;;20.80;56.65;98308.11;1648994;86;21625;-72
2021/05/19 10:37:45;;;;;;;5.22;2.20;;;;;;;20.79;58.41;98307.08;1628079;87;21217;-71
2021/05/19 10:40:18;;;;;;;4.15;2.45;;;;;;;20.76;59.88;98308.59;1648292;86;20942;-71
2021/05/19 10:42:58;;;;;;;2.75;2.50;;;;;;;20.80;60.22;98310.84;1622991;87;21351;-71
2021/05/19 10:45:24;;;;;;;4.37;1.87;;;;;;;20.82;60.81;98311.27;1641770;86;21911;-71
2021/05/19 10:47:52;;;;;;;1.65;1.55;;;;;;;20.90;59.91;98306.80;1648466;86;21152;-71
2021/05/19 10:50:32;;;;;;;4.75;1.90;;;;;;;20.94;58.97;98309.61;1648136;86;21962;-73
2021/05/19 10:58:49;;;;;;;2.42;2.17;;;;;;;21.00;58.46;98316.41;1596212;89;21637;-69
2021/05/19 11:01:12;;;;;;;2.83;1.75;;;;;;;21.03;58.50;98319.23;1595414;89;21278;-73
2021/05/19 11:03:39;;;;;;;3.92;1.70;;;;;;;21.00;59.28;98315.84;1616590;86;21596;-75
2021/05/19 11:06:12;;;;;;;2.40;1.35;;;;;;;21.01;58.54;98313.31;1623682;88;21049;-75
2021/05/19 11:08:40;;;;;;;2.25;1.60;;;;;;;21.03;58.35;98311.03;1639916;87;20988;-75
2021/05/19 11:11:21;;;;;;;1.40;1.30;;;;;;;21.04;59.04;98313.20;1649024;87;21092;-72
2021/05/19 11:14:11;;;;;;;7.17;1.47;;;;;;;21.08;58.78;98310.77;1653133;85;21081;-73
2021/05/19 11:16:52;;;;;;;2.20;1.15;;;;;;;21.16;57.42;98312.55;1646970;87;21841;-72
2021/05/19 11:19:33;;;;;;;3.75;1.65;;;;;;;21.19;55.78;98314.60;1648568;86;20973;-71
2021/05/19 11:22:13;;;;;;;1.50;1.20;;;;;;;21.21;54.59;98324.59;1649005;86;21570;-67
2021/05/19 11:25:00;;;;;;;1.67;1.55;;;;;;;21.16;54.77;98314.50;1635568;86;21144;-72
2021/05/19 11:27:34;;;;;;;2.30;1.10;;;;;;;21.14;55.79;98312.70;1628126;87;21048;-70
2021/05/19 11:30:07;;;;;;;1.98;1.10;;;;;;;21.18;55.45;98316.31;1648870;86;21193;-70
2021/05/19 11:32:35;;;;;;;1.12;1.02;;;;;;;21.29;55.50;98316.78;1649009;86;21554;-71
2021/05/19 11:35:19;;;;;;;1.62;1.17;;;;;;;21.42;54.67;98320.80;1647323;86;21218;-71
2021/05/19 11:38:07;;;;;;;1.92;1.40;;;;;;;21.47;55.14;98318.59;1648637;87;21104;-70
2021/05/19 11:40:46;;;;;;;1.15;1.00;;;;;;;21.52;55.68;98318.33;1648239;87;21109;-72